Detall de PIREP

Printer-friendly versionPDF version

[2014/06/07 11:20:00]
Flight IATA:CT2314
Pilot Number:012
Company ICAO:CAT
Aircraft Type:C750/F
PAX:4
Departing Airport: LIEA
Destination Airport: LIPZ
Alternate Airport:LIRF
Online: VATSIM
Route:MINKA UL5 ROMPO UQ125 ELB UL12 FRZ UM167 SUKOM UZ71 SOVUB
Flight Level:F340
No Slew and time accel
No pause
Crash detect
Detect pilot in Cockpit between each 30 and 45 minutes
11:20 Zero fuel Weight: 22908 Lbs, Fuel Weight: 5857 Lbs
11:20 VATSIM:LIEA 071050Z 19008KT 150V210 CAVOK 30/14 Q1017
11:20 VATSIM:LIPZ 071050Z 15007KT CAVOK 26/18 Q1018
11:21 VIP ARCADI AMOROS
11:21 Parking Brakes off
11:26 Take-off
11:26 Take off Weight: 28691 Lbs
11:26 Wind: 182º @ 008 Knots Heading: 203º
11:26 POS N40º 37´ 50´´ E008º 17´ 24´´
11:26 Gear Up: 161 Knots
11:26 Flaps:3 at 161 Knots
11:26 Flaps:2 at 168 Knots
11:27 Flaps:0 at 193 Knots
11:36 TOC
11:36 Fuel Weight: 5311 Lb
11:41 Wind:335º@019 Knots Heading: 013º Ground Speed: 492 Knots Altitude 34133 ft
11:56 Wind:325º@017 Knots Heading: 017º Ground Speed: 498 Knots Altitude 34137 ft
12:05 TOD
12:05 Fuel Weight: 4528 Lb
12:11 Wind:292º@008 Knots Heading: 337º Ground Speed: 390 Knots Altitude 19757 ft
12:22 Flaps:2 at 218 Knots
12:22 Flaps:3 at 209 Knots
12:22 Flaps:4 at 197 Knots
12:22 Gear Down: 172 Knots
12:23 Flaps:5 at 165 Knots
12:26 Wind:156º@008 Knots Heading: 045º Ground Speed: 134 Knots Altitude 039 ft
12:26 TouchDown:Rate -169 ft/min Speed: 120 Knots
12:26 Flaps:0 at 61 Knots
12:26 VATSIM:LIPZ 071150Z 14009KT CAVOK 26/18 Q1017
12:26 Land
12:26 Wind:141º@008 Knots
12:26 Heading: 039º
12:26 Flight Duration: 01:00
12:26 Landing Weight: 27249 Lbs
12:26 POS N45º 30´ 13´´ E012º 21´ 01´´
12:28 Parking brakes on
12:28 Block to Block Duration: 01:07
12:28 Final Fuel: 4323 Lbls
12:28 Spent Fuel: 1534 Lbls
12:28 Flight Length: 404 NM
12:28 TOD Land Length: 101 NM

Exportar CSV

Powered by Drupal - Modified by Danger4k